sensor_id;sensor_type;location;lat;lon;timestamp;pressure;altitude;pressure_sealevel;temperature
78917;BMP280;68315;48.608;11.436;2023-12-14T00:01:21;96051.63;;;5.58
78917;BMP280;68315;48.608;11.436;2023-12-14T00:03:46;96044.72;;;5.57
78917;BMP280;68315;48.608;11.436;2023-12-14T00:06:12;96048.69;;;5.56
78917;BMP280;68315;48.608;11.436;2023-12-14T00:08:38;96046.69;;;5.56
78917;BMP280;68315;48.608;11.436;2023-12-14T00:11:07;96051.41;;;5.56
78917;BMP280;68315;48.608;11.436;2023-12-14T00:13:33;96056.13;;;5.55
78917;BMP280;68315;48.608;11.436;2023-12-14T00:15:59;96057.19;;;5.52
78917;BMP280;68315;48.608;11.436;2023-12-14T00:18:24;96058.44;;;5.51
78917;BMP280;68315;48.608;11.436;2023-12-14T00:20:49;96066.63;;;5.51
78917;BMP280;68315;48.608;11.436;2023-12-14T00:23:15;96071.84;;;5.49
78917;BMP280;68315;48.608;11.436;2023-12-14T00:25:40;96074.59;;;5.49
78917;BMP280;68315;48.608;11.436;2023-12-14T00:28:05;96073.84;;;5.49
78917;BMP280;68315;48.608;11.436;2023-12-14T00:30:30;96070.16;;;5.46
78917;BMP280;68315;48.608;11.436;2023-12-14T00:32:56;96070.16;;;5.46
78917;BMP280;68315;48.608;11.436;2023-12-14T00:35:21;96074.88;;;5.46
78917;BMP280;68315;48.608;11.436;2023-12-14T00:37:46;96078.84;;;5.45
78917;BMP280;68315;48.608;11.436;2023-12-14T00:40:12;96079.56;;;5.45
78917;BMP280;68315;48.608;11.436;2023-12-14T00:42:37;96084.28;;;5.45
78917;BMP280;68315;48.608;11.436;2023-12-14T00:45:02;96090.47;;;5.45
78917;BMP280;68315;48.608;11.436;2023-12-14T00:47:28;96095.19;;;5.45
78917;BMP280;68315;48.608;11.436;2023-12-14T00:49:53;96101.38;;;5.45
78917;BMP280;68315;48.608;11.436;2023-12-14T00:52:18;96104.63;;;5.44
78917;BMP280;68315;48.608;11.436;2023-12-14T00:54:43;96106.06;;;5.45
78917;BMP280;68315;48.608;11.436;2023-12-14T00:57:09;96114.97;;;5.45
78917;BMP280;68315;48.608;11.436;2023-12-14T00:59:34;96123.91;;;5.46
78917;BMP280;68315;48.608;11.436;2023-12-14T01:01:59;96125.38;;;5.47
78917;BMP280;68315;48.608;11.436;2023-12-14T01:04:24;96129.06;;;5.49
78917;BMP280;68315;48.608;11.436;2023-12-14T01:06:50;96125.59;;;5.49
78917;BMP280;68315;48.608;11.436;2023-12-14T01:09:15;96131.53;;;5.47
78917;BMP280;68315;48.608;11.436;2023-12-14T01:11:40;96131.53;;;5.47
78917;BMP280;68315;48.608;11.436;2023-12-14T01:14:05;96133.75;;;5.49
78917;BMP280;68315;48.608;11.436;2023-12-14T01:16:30;96142.69;;;5.49
78917;BMP280;68315;48.608;11.436;2023-12-14T01:18:56;96145.81;;;5.53
78917;BMP280;68315;48.608;11.436;2023-12-14T01:21:21;96146.56;;;5.54
78917;BMP280;68315;48.608;11.436;2023-12-14T01:23:46;96148.44;;;5.59
78917;BMP280;68315;48.608;11.436;2023-12-14T01:26:13;96153.16;;;5.58
78917;BMP280;68315;48.608;11.436;2023-12-14T01:28:38;96158.09;;;5.60
78917;BMP280;68315;48.608;11.436;2023-12-14T01:31:03;96157.56;;;5.61
78917;BMP280;68315;48.608;11.436;2023-12-14T01:33:29;96156.84;;;5.61
78917;BMP280;68315;48.608;11.436;2023-12-14T01:35:54;96163.00;;;5.61
78917;BMP280;68315;48.608;11.436;2023-12-14T01:38:19;96171.44;;;5.63
78917;BMP280;68315;48.608;11.436;2023-12-14T01:40:44;96178.34;;;5.64
78917;BMP280;68315;48.608;11.436;2023-12-14T01:43:10;96171.13;;;5.67
78917;BMP280;68315;48.608;11.436;2023-12-14T01:45:36;96183.19;;;5.72
78917;BMP280;68315;48.608;11.436;2023-12-14T01:48:01;96181.69;;;5.70
78917;BMP280;68315;48.608;11.436;2023-12-14T01:50:26;96186.97;;;5.68
78917;BMP280;68315;48.608;11.436;2023-12-14T01:52:52;96191.66;;;5.68
78917;BMP280;68315;48.608;11.436;2023-12-14T01:55:17;96193.66;;;5.67
78917;BMP280;68315;48.608;11.436;2023-12-14T01:57:42;96205.28;;;5.68
78917;BMP280;68315;48.608;11.436;2023-12-14T02:00:12;96214.72;;;5.67
78917;BMP280;68315;48.608;11.436;2023-12-14T02:02:39;96223.13;;;5.69
78917;BMP280;68315;48.608;11.436;2023-12-14T02:05:05;96214.22;;;5.68
78917;BMP280;68315;48.608;11.436;2023-12-14T02:07:30;96221.63;;;5.68
78917;BMP280;68315;48.608;11.436;2023-12-14T02:09:56;96229.81;;;5.68
78917;BMP280;68315;48.608;11.436;2023-12-14T02:12:21;96221.13;;;5.70
78917;BMP280;68315;48.608;11.436;2023-12-14T02:14:48;96230.00;;;5.70
78917;BMP280;68315;48.608;11.436;2023-12-14T02:17:13;96234.22;;;5.71
78917;BMP280;68315;48.608;11.436;2023-12-14T02:19:38;96232.72;;;5.70
78917;BMP280;68315;48.608;11.436;2023-12-14T02:22:04;96233.47;;;5.70
78917;BMP280;68315;48.608;11.436;2023-12-14T02:24:29;96237.69;;;5.72
78917;BMP280;68315;48.608;11.436;2023-12-14T02:26:54;96232.22;;;5.72
78917;BMP280;68315;48.608;11.436;2023-12-14T02:29:20;96239.88;;;5.73
78917;BMP280;68315;48.608;11.436;2023-12-14T02:31:46;96244.59;;;5.72
78917;BMP280;68315;48.608;11.436;2023-12-14T02:34:11;96249.75;;;5.76
78917;BMP280;68315;48.608;11.436;2023-12-14T02:36:37;96244.31;;;5.76
78917;BMP280;68315;48.608;11.436;2023-12-14T02:39:02;96242.03;;;5.80
78917;BMP280;68315;48.608;11.436;2023-12-14T02:41:27;96242.78;;;5.81
78917;BMP280;68315;48.608;11.436;2023-12-14T02:43:52;96240.03;;;5.81
78917;BMP280;68315;48.608;11.436;2023-12-14T02:46:18;96247.97;;;5.79
78917;BMP280;68315;48.608;11.436;2023-12-14T02:48:43;96247.97;;;5.79
78917;BMP280;68315;48.608;11.436;2023-12-14T02:51:12;96260.16;;;5.78
78917;BMP280;68315;48.608;11.436;2023-12-14T02:53:37;96256.97;;;5.74
78917;BMP280;68315;48.608;11.436;2023-12-14T02:56:03;96264.63;;;5.75
78917;BMP280;68315;48.608;11.436;2023-12-14T02:58:28;96274.81;;;5.75
78917;BMP280;68315;48.608;11.436;2023-12-14T03:00:53;96267.88;;;5.74
78917;BMP280;68315;48.608;11.436;2023-12-14T03:03:19;96282.22;;;5.74
78917;BMP280;68315;48.608;11.436;2023-12-14T03:05:44;96286.94;;;5.74
78917;BMP280;68315;48.608;11.436;2023-12-14T03:08:09;96286.94;;;5.74
78917;BMP280;68315;48.608;11.436;2023-12-14T03:10:34;96287.97;;;5.70
78917;BMP280;68315;48.608;11.436;2023-12-14T03:13:00;96297.44;;;5.70
78917;BMP280;68315;48.608;11.436;2023-12-14T03:15:25;96301.59;;;5.70
78917;BMP280;68315;48.608;11.436;2023-12-14T03:17:50;96307.03;;;5.70
78917;BMP280;68315;48.608;11.436;2023-12-14T03:20:15;96304.13;;;5.68
78917;BMP280;68315;48.608;11.436;2023-12-14T03:22:41;96314.28;;;5.68
78917;BMP280;68315;48.608;11.436;2023-12-14T03:25:07;96316.78;;;5.66
78917;BMP280;68315;48.608;11.436;2023-12-14T03:27:32;96319.75;;;5.68
78917;BMP280;68315;48.608;11.436;2023-12-14T03:29:58;96325.19;;;5.68
78917;BMP280;68315;48.608;11.436;2023-12-14T03:32:23;96329.16;;;5.67
78917;BMP280;68315;48.608;11.436;2023-12-14T03:34:48;96326.94;;;5.65
78917;BMP280;68315;48.608;11.436;2023-12-14T03:37:13;96336.63;;;5.66
78917;BMP280;68315;48.608;11.436;2023-12-14T03:39:39;96334.59;;;5.67
78917;BMP280;68315;48.608;11.436;2023-12-14T03:42:04;96338.06;;;5.67
78917;BMP280;68315;48.608;11.436;2023-12-14T03:44:29;96336.09;;;5.68
78917;BMP280;68315;48.608;11.436;2023-12-14T03:46:54;96341.53;;;5.68
78917;BMP280;68315;48.608;11.436;2023-12-14T03:49:20;96340.78;;;5.67
78917;BMP280;68315;48.608;11.436;2023-12-14T03:51:46;96355.69;;;5.66
78917;BMP280;68315;48.608;11.436;2023-12-14T03:54:11;96352.22;;;5.66
78917;BMP280;68315;48.608;11.436;2023-12-14T03:56:36;96351.94;;;5.70
78917;BMP280;68315;48.608;11.436;2023-12-14T03:59:02;96360.63;;;5.68
78917;BMP280;68315;48.608;11.436;2023-12-14T04:01:27;96358.41;;;5.66
78917;BMP280;68315;48.608;11.436;2023-12-14T04:03:52;96367.31;;;5.67
78917;BMP280;68315;48.608;11.436;2023-12-14T04:06:18;96374.50;;;5.64
78917;BMP280;68315;48.608;11.436;2023-12-14T04:08:43;96370.81;;;5.62
78917;BMP280;68315;48.608;11.436;2023-12-14T04:11:08;96384.97;;;5.60
78917;BMP280;68315;48.608;11.436;2023-12-14T04:13:34;96387.69;;;5.60
78917;BMP280;68315;48.608;11.436;2023-12-14T04:15:59;96388.94;;;5.59
78917;BMP280;68315;48.608;11.436;2023-12-14T04:18:24;96392.19;;;5.58
78917;BMP280;68315;48.608;11.436;2023-12-14T04:20:50;96396.88;;;5.57
78917;BMP280;68315;48.608;11.436;2023-12-14T04:23:15;96396.16;;;5.57
78917;BMP280;68315;48.608;11.436;2023-12-14T04:25:40;96401.06;;;5.58
78917;BMP280;68315;48.608;11.436;2023-12-14T04:28:05;96405.06;;;5.57
78917;BMP280;68315;48.608;11.436;2023-12-14T04:30:31;96406.78;;;5.60
78917;BMP280;68315;48.608;11.436;2023-12-14T04:32:56;96408.97;;;5.62
78917;BMP280;68315;48.608;11.436;2023-12-14T04:35:21;96415.69;;;5.61
78917;BMP280;68315;48.608;11.436;2023-12-14T04:37:49;96423.63;;;5.59
78917;BMP280;68315;48.608;11.436;2023-12-14T04:40:15;96415.97;;;5.57
78917;BMP280;68315;48.608;11.436;2023-12-14T04:42:40;96431.34;;;5.55
78917;BMP280;68315;48.608;11.436;2023-12-14T04:45:06;96429.88;;;5.54
78917;BMP280;68315;48.608;11.436;2023-12-14T04:47:31;96431.56;;;5.57
78917;BMP280;68315;48.608;11.436;2023-12-14T04:49:56;96444.44;;;5.56
78917;BMP280;68315;48.608;11.436;2023-12-14T04:52:21;96447.16;;;5.56
78917;BMP280;68315;48.608;11.436;2023-12-14T04:54:47;96453.59;;;5.59
78917;BMP280;68315;48.608;11.436;2023-12-14T04:57:12;96458.28;;;5.58
78917;BMP280;68315;48.608;11.436;2023-12-14T04:59:37;96460.78;;;5.56
78917;BMP280;68315;48.608;11.436;2023-12-14T05:02:03;96458.59;;;5.55
78917;BMP280;68315;48.608;11.436;2023-12-14T05:04:28;96470.00;;;5.53
78917;BMP280;68315;48.608;11.436;2023-12-14T05:06:53;96464.03;;;5.55
78917;BMP280;68315;48.608;11.436;2023-12-14T05:09:19;96474.19;;;5.54
78917;BMP280;68315;48.608;11.436;2023-12-14T05:11:44;96474.72;;;5.53
78917;BMP280;68315;48.608;11.436;2023-12-14T05:14:09;96478.69;;;5.52
78917;BMP280;68315;48.608;11.436;2023-12-14T05:16:34;96485.38;;;5.51
78917;BMP280;68315;48.608;11.436;2023-12-14T05:19:00;96487.88;;;5.49
78917;BMP280;68315;48.608;11.436;2023-12-14T05:21:25;96478.22;;;5.48
78917;BMP280;68315;48.608;11.436;2023-12-14T05:23:50;96488.38;;;5.47
78917;BMP280;68315;48.608;11.436;2023-12-14T05:26:16;96493.13;;;5.47
78917;BMP280;68315;48.608;11.436;2023-12-14T05:28:41;96500.03;;;5.48
78917;BMP280;68315;48.608;11.436;2023-12-14T05:31:06;96504.22;;;5.49
78917;BMP280;68315;48.608;11.436;2023-12-14T05:33:31;96509.69;;;5.49
78917;BMP280;68315;48.608;11.436;2023-12-14T05:35:58;96514.38;;;5.48
78917;BMP280;68315;48.608;11.436;2023-12-14T05:38:24;96530.00;;;5.48
78917;BMP280;68315;48.608;11.436;2023-12-14T05:40:49;96528.75;;;5.49
78917;BMP280;68315;48.608;11.436;2023-12-14T05:43:14;96526.78;;;5.49
78917;BMP280;68315;48.608;11.436;2023-12-14T05:45:39;96532.72;;;5.48
78917;BMP280;68315;48.608;11.436;2023-12-14T05:48:05;96540.13;;;5.47
78917;BMP280;68315;48.608;11.436;2023-12-14T05:50:30;96535.44;;;5.48
78917;BMP280;68315;48.608;11.436;2023-12-14T05:52:56;96552.53;;;5.48
78917;BMP280;68315;48.608;11.436;2023-12-14T05:55:21;96550.31;;;5.47
78917;BMP280;68315;48.608;11.436;2023-12-14T05:57:50;96555.03;;;5.46
78917;BMP280;68315;48.608;11.436;2023-12-14T06:00:17;96558.50;;;5.47
78917;BMP280;68315;48.608;11.436;2023-12-14T06:02:43;96557.50;;;5.44
78917;BMP280;68315;48.608;11.436;2023-12-14T06:05:08;96556.25;;;5.45
78917;BMP280;68315;48.608;11.436;2023-12-14T06:07:33;96565.66;;;5.44
78917;BMP280;68315;48.608;11.436;2023-12-14T06:09:59;96562.94;;;5.44
78917;BMP280;68315;48.608;11.436;2023-12-14T06:12:24;96574.59;;;5.45
78917;BMP280;68315;48.608;11.436;2023-12-14T06:14:50;96578.56;;;5.44
78917;BMP280;68315;48.608;11.436;2023-12-14T06:17:15;96579.56;;;5.41
78917;BMP280;68315;48.608;11.436;2023-12-14T06:19:41;96578.84;;;5.40
78917;BMP280;68315;48.608;11.436;2023-12-14T06:22:09;96584.72;;;5.44
78917;BMP280;68315;48.608;11.436;2023-12-14T06:24:34;96585.72;;;5.47
78917;BMP280;68315;48.608;11.436;2023-12-14T06:26:59;96588.94;;;5.45
78917;BMP280;68315;48.608;11.436;2023-12-14T06:29:25;96589.97;;;5.42
78917;BMP280;68315;48.608;11.436;2023-12-14T06:31:50;96603.09;;;5.44
78917;BMP280;68315;48.608;11.436;2023-12-14T06:34:16;96600.84;;;5.42
78917;BMP280;68315;48.608;11.436;2023-12-14T06:36:45;96611.00;;;5.42
78917;BMP280;68315;48.608;11.436;2023-12-14T06:39:10;96621.47;;;5.38
78917;BMP280;68315;48.608;11.436;2023-12-14T06:41:36;96624.44;;;5.34
78917;BMP280;68315;48.608;11.436;2023-12-14T06:44:01;96620.97;;;5.34
78917;BMP280;68315;48.608;11.436;2023-12-14T06:46:26;96624.97;;;5.33
78917;BMP280;68315;48.608;11.436;2023-12-14T06:48:51;96633.84;;;5.33
78917;BMP280;68315;48.608;11.436;2023-12-14T06:51:17;96634.84;;;5.36
78917;BMP280;68315;48.608;11.436;2023-12-14T06:53:43;96643.53;;;5.34
78917;BMP280;68315;48.608;11.436;2023-12-14T06:56:09;96646.25;;;5.34
78917;BMP280;68315;48.608;11.436;2023-12-14T06:58:36;96648.00;;;5.32
78917;BMP280;68315;48.608;11.436;2023-12-14T07:01:01;96649.97;;;5.31
78917;BMP280;68315;48.608;11.436;2023-12-14T07:03:27;96649.97;;;5.31
78917;BMP280;68315;48.608;11.436;2023-12-14T07:05:52;96665.06;;;5.32
78917;BMP280;68315;48.608;11.436;2023-12-14T07:08:17;96665.06;;;5.32
78917;BMP280;68315;48.608;11.436;2023-12-14T07:10:42;96672.00;;;5.33
78917;BMP280;68315;48.608;11.436;2023-12-14T07:13:08;96673.47;;;5.34
78917;BMP280;68315;48.608;11.436;2023-12-14T07:15:33;96680.41;;;5.35
78917;BMP280;68315;48.608;11.436;2023-12-14T07:17:58;96682.41;;;5.35
78917;BMP280;68315;48.608;11.436;2023-12-14T07:20:24;96694.03;;;5.35
78917;BMP280;68315;48.608;11.436;2023-12-14T07:22:50;96702.94;;;5.36
78917;BMP280;68315;48.608;11.436;2023-12-14T07:25:15;96708.41;;;5.36
78917;BMP280;68315;48.608;11.436;2023-12-14T07:27:40;96712.34;;;5.35
78917;BMP280;68315;48.608;11.436;2023-12-14T07:30:06;96718.03;;;5.37
78917;BMP280;68315;48.608;11.436;2023-12-14T07:32:31;96720.75;;;5.37
78917;BMP280;68315;48.608;11.436;2023-12-14T07:34:56;96721.50;;;5.37
78917;BMP280;68315;48.608;11.436;2023-12-14T07:37:22;96723.72;;;5.39
78917;BMP280;68315;48.608;11.436;2023-12-14T07:39:47;96719.25;;;5.41
78917;BMP280;68315;48.608;11.436;2023-12-14T07:42:12;96726.16;;;5.42
78917;BMP280;68315;48.608;11.436;2023-12-14T07:44:42;96732.34;;;5.48
78917;BMP280;68315;48.608;11.436;2023-12-14T07:47:07;96742.75;;;5.44
78917;BMP280;68315;48.608;11.436;2023-12-14T07:49:32;96735.06;;;5.43
78917;BMP280;68315;48.608;11.436;2023-12-14T07:51:58;96743.47;;;5.45
78917;BMP280;68315;48.608;11.436;2023-12-14T07:54:23;96746.94;;;5.45
78917;BMP280;68315;48.608;11.436;2023-12-14T07:56:50;96749.19;;;5.47
78917;BMP280;68315;48.608;11.436;2023-12-14T07:59:16;96747.19;;;5.47
78917;BMP280;68315;48.608;11.436;2023-12-14T08:01:41;96755.09;;;5.51
78917;BMP280;68315;48.608;11.436;2023-12-14T08:04:06;96760.28;;;5.54
78917;BMP280;68315;48.608;11.436;2023-12-14T08:06:31;96758.53;;;5.57
78917;BMP280;68315;48.608;11.436;2023-12-14T08:08:57;96770.41;;;5.59
78917;BMP280;68315;48.608;11.436;2023-12-14T08:11:25;96785.00;;;5.62
78917;BMP280;68315;48.608;11.436;2023-12-14T08:13:50;96776.59;;;5.65
78917;BMP280;68315;48.608;11.436;2023-12-14T08:16:15;96780.28;;;5.68
78917;BMP280;68315;48.608;11.436;2023-12-14T08:18:42;96782.53;;;5.70
78917;BMP280;68315;48.608;11.436;2023-12-14T08:21:09;96784.72;;;5.71
78917;BMP280;68315;48.608;11.436;2023-12-14T08:23:35;96789.91;;;5.75
78917;BMP280;68315;48.608;11.436;2023-12-14T08:26:01;96792.38;;;5.78
78917;BMP280;68315;48.608;11.436;2023-12-14T08:28:26;96798.06;;;5.80
78917;BMP280;68315;48.608;11.436;2023-12-14T08:30:52;96807.41;;;5.85
78917;BMP280;68315;48.608;11.436;2023-12-14T08:33:17;96807.66;;;5.87
78917;BMP280;68315;48.608;11.436;2023-12-14T08:35:42;96807.38;;;5.96
78917;BMP280;68315;48.608;11.436;2023-12-14T08:38:07;96808.13;;;5.96
78917;BMP280;68315;48.608;11.436;2023-12-14T08:40:33;96815.53;;;5.96
78917;BMP280;68315;48.608;11.436;2023-12-14T08:42:58;96822.50;;;5.97
78917;BMP280;68315;48.608;11.436;2023-12-14T08:45:23;96835.38;;;5.96
78917;BMP280;68315;48.608;11.436;2023-12-14T08:47:49;96836.13;;;5.97
78917;BMP280;68315;48.608;11.436;2023-12-14T08:50:14;96839.59;;;5.97
78917;BMP280;68315;48.608;11.436;2023-12-14T08:52:39;96845.06;;;5.97
78917;BMP280;68315;48.608;11.436;2023-12-14T08:55:05;96852.72;;;5.99
78917;BMP280;68315;48.608;11.436;2023-12-14T08:57:30;96856.66;;;6.03
78917;BMP280;68315;48.608;11.436;2023-12-14T08:59:56;96862.56;;;6.07
78917;BMP280;68315;48.608;11.436;2023-12-14T09:02:21;96865.53;;;6.09
78917;BMP280;68315;48.608;11.436;2023-12-14T09:04:47;96860.06;;;6.09
78917;BMP280;68315;48.608;11.436;2023-12-14T09:07:12;96865.78;;;6.11
78917;BMP280;68315;48.608;11.436;2023-12-14T09:09:37;96870.69;;;6.13
78917;BMP280;68315;48.608;11.436;2023-12-14T09:12:02;96879.63;;;6.13
78917;BMP280;68315;48.608;11.436;2023-12-14T09:14:28;96879.13;;;6.15
78917;BMP280;68315;48.608;11.436;2023-12-14T09:16:54;96882.31;;;6.24
78917;BMP280;68315;48.608;11.436;2023-12-14T09:19:19;96885.19;;;6.37
78917;BMP280;68315;48.608;11.436;2023-12-14T09:21:45;96890.09;;;6.45
78917;BMP280;68315;48.608;11.436;2023-12-14T09:24:10;96895.25;;;6.54
78917;BMP280;68315;48.608;11.436;2023-12-14T09:26:35;96892.88;;;6.69
78917;BMP280;68315;48.608;11.436;2023-12-14T09:29:01;96893.00;;;6.87
78917;BMP280;68315;48.608;11.436;2023-12-14T09:31:27;96896.13;;;6.97
78917;BMP280;68315;48.608;11.436;2023-12-14T09:33:52;96895.50;;;7.09
78917;BMP280;68315;48.608;11.436;2023-12-14T09:36:17;96903.94;;;7.12
78917;BMP280;68315;48.608;11.436;2023-12-14T09:38:42;96907.88;;;7.16
78917;BMP280;68315;48.608;11.436;2023-12-14T09:41:08;96914.31;;;7.19
78917;BMP280;68315;48.608;11.436;2023-12-14T09:43:33;96911.53;;;7.24
78917;BMP280;68315;48.608;11.436;2023-12-14T09:46:01;96911.66;;;7.32
78917;BMP280;68315;48.608;11.436;2023-12-14T09:48:28;96912.25;;;7.49
78917;BMP280;68315;48.608;11.436;2023-12-14T09:50:53;96908.47;;;7.52
78917;BMP280;68315;48.608;11.436;2023-12-14T09:53:19;96911.50;;;7.48
78917;BMP280;68315;48.608;11.436;2023-12-14T09:55:44;96913.00;;;7.49
78917;BMP280;68315;48.608;11.436;2023-12-14T09:58:09;96914.91;;;7.54
78917;BMP280;68315;48.608;11.436;2023-12-14T10:00:40;96912.41;;;7.56
78917;BMP280;68315;48.608;11.436;2023-12-14T10:03:28;96925.31;;;7.56
78917;BMP280;68315;48.608;11.436;2023-12-14T10:05:54;96924.81;;;7.57
78917;BMP280;68315;48.608;11.436;2023-12-14T10:08:20;96932.38;;;7.70
78917;BMP280;68315;48.608;11.436;2023-12-14T10:10:47;96930.78;;;7.80
78917;BMP280;68315;48.608;11.436;2023-12-14T10:13:14;96936.97;;;7.99
78917;BMP280;68315;48.608;11.436;2023-12-14T10:15:44;96937.50;;;8.16
78917;BMP280;68315;48.608;11.436;2023-12-14T10:18:09;96942.78;;;8.14
78917;BMP280;68315;48.608;11.436;2023-12-14T10:20:34;96943.34;;;8.07
78917;BMP280;68315;48.608;11.436;2023-12-14T10:22:59;96950.09;;;8.06
78917;BMP280;68315;48.608;11.436;2023-12-14T10:25:25;96942.94;;;8.03
78917;BMP280;68315;48.608;11.436;2023-12-14T10:27:51;96937.72;;;8.00
78917;BMP280;68315;48.608;11.436;2023-12-14T10:30:19;96940.25;;;7.98
78917;BMP280;68315;48.608;11.436;2023-12-14T10:32:48;96949.16;;;7.98
78917;BMP280;68315;48.608;11.436;2023-12-14T10:35:16;96946.44;;;7.98
78917;BMP280;68315;48.608;11.436;2023-12-14T10:37:42;96954.59;;;8.04
78917;BMP280;68315;48.608;11.436;2023-12-14T10:40:11;96958.28;;;8.06
78917;BMP280;68315;48.608;11.436;2023-12-14T10:42:39;96961.09;;;8.01
78917;BMP280;68315;48.608;11.436;2023-12-14T10:45:08;96962.63;;;7.96
78917;BMP280;68315;48.608;11.436;2023-12-14T10:47:37;96961.38;;;7.97
78917;BMP280;68315;48.608;11.436;2023-12-14T10:50:05;96963.88;;;7.95
78917;BMP280;68315;48.608;11.436;2023-12-14T10:52:31;96972.31;;;7.97
78917;BMP280;68315;48.608;11.436;2023-12-14T10:55:07;96973.16;;;7.92
78917;BMP280;68315;48.608;11.436;2023-12-14T10:57:34;96976.97;;;7.83
78917;BMP280;68315;48.608;11.436;2023-12-14T11:00:00;96969.06;;;7.80
78917;BMP280;68315;48.608;11.436;2023-12-14T11:02:25;96976.00;;;7.81
78917;BMP280;68315;48.608;11.436;2023-12-14T11:05:00;96971.56;;;7.78
78917;BMP280;68315;48.608;11.436;2023-12-14T11:07:46;96982.00;;;7.79
78917;BMP280;68315;48.608;11.436;2023-12-14T11:10:12;96992.19;;;7.79
78917;BMP280;68315;48.608;11.436;2023-12-14T11:12:37;96994.91;;;7.79
78917;BMP280;68315;48.608;11.436;2023-12-14T11:15:05;96986.50;;;7.77
78917;BMP280;68315;48.608;11.436;2023-12-14T11:17:30;96996.25;;;7.72
78917;BMP280;68315;48.608;11.436;2023-12-14T11:19:55;96998.25;;;7.72
78917;BMP280;68315;48.608;11.436;2023-12-14T11:22:27;97003.91;;;7.74
78917;BMP280;68315;48.608;11.436;2023-12-14T11:24:54;96999.63;;;7.78
78917;BMP280;68315;48.608;11.436;2023-12-14T11:27:28;97003.91;;;7.74
78917;BMP280;68315;48.608;11.436;2023-12-14T11:29:54;97005.91;;;7.73
78917;BMP280;68315;48.608;11.436;2023-12-14T11:32:19;97009.13;;;7.77
78917;BMP280;68315;48.608;11.436;2023-12-14T11:34:46;97013.56;;;7.80
78917;BMP280;68315;48.608;11.436;2023-12-14T11:37:12;97006.22;;;7.94
78917;BMP280;68315;48.608;11.436;2023-12-14T11:39:37;97009.88;;;8.15
78917;BMP280;68315;48.608;11.436;2023-12-14T11:42:04;97008.81;;;8.42
78917;BMP280;68315;48.608;11.436;2023-12-14T11:44:32;97003.44;;;8.69
78917;BMP280;68315;48.608;11.436;2023-12-14T11:46:57;97019.78;;;8.93
78917;BMP280;68315;48.608;11.436;2023-12-14T11:49:25;97007.13;;;9.21
78917;BMP280;68315;48.608;11.436;2023-12-14T11:51:52;97007.88;;;9.48
78917;BMP280;68315;48.608;11.436;2023-12-14T11:54:19;97019.06;;;9.63
78917;BMP280;68315;48.608;11.436;2023-12-14T11:56:46;97023.06;;;9.62
78917;BMP280;68315;48.608;11.436;2023-12-14T11:59:12;97028.88;;;9.46
78917;BMP280;68315;48.608;11.436;2023-12-14T12:01:37;97033.78;;;9.34
78917;BMP280;68315;48.608;11.436;2023-12-14T12:04:12;97024.72;;;9.13
78917;BMP280;68315;48.608;11.436;2023-12-14T12:06:37;97037.47;;;8.92
78917;BMP280;68315;48.608;11.436;2023-12-14T12:09:02;97037.44;;;8.79
78917;BMP280;68315;48.608;11.436;2023-12-14T12:11:32;97032.31;;;8.70
78917;BMP280;68315;48.608;11.436;2023-12-14T12:13:58;97028.94;;;8.64
78917;BMP280;68315;48.608;11.436;2023-12-14T12:16:25;97035.97;;;8.59
78917;BMP280;68315;48.608;11.436;2023-12-14T12:18:50;97035.22;;;8.58
78917;BMP280;68315;48.608;11.436;2023-12-14T12:21:16;97030.94;;;8.63
78917;BMP280;68315;48.608;11.436;2023-12-14T12:23:41;97032.84;;;8.68
78917;BMP280;68315;48.608;11.436;2023-12-14T12:26:07;97034.56;;;8.71
78917;BMP280;68315;48.608;11.436;2023-12-14T12:28:32;97034.78;;;8.73
78917;BMP280;68315;48.608;11.436;2023-12-14T12:30:57;97043.00;;;8.73
78917;BMP280;68315;48.608;11.436;2023-12-14T12:33:24;97035.59;;;8.68
78917;BMP280;68315;48.608;11.436;2023-12-14T12:35:50;97034.63;;;8.66
78917;BMP280;68315;48.608;11.436;2023-12-14T12:38:16;97044.88;;;8.65
78917;BMP280;68315;48.608;11.436;2023-12-14T12:40:41;97039.88;;;8.64
78917;BMP280;68315;48.608;11.436;2023-12-14T12:43:06;97042.78;;;8.71
78917;BMP280;68315;48.608;11.436;2023-12-14T12:45:32;97046.88;;;8.78
78917;BMP280;68315;48.608;11.436;2023-12-14T12:47:57;97047.75;;;8.86
78917;BMP280;68315;48.608;11.436;2023-12-14T12:50:22;97047.94;;;8.93
78917;BMP280;68315;48.608;11.436;2023-12-14T12:52:48;97061.22;;;9.02
78917;BMP280;68315;48.608;11.436;2023-12-14T12:55:15;97058.16;;;9.06
78917;BMP280;68315;48.608;11.436;2023-12-14T12:57:40;97057.34;;;9.11
78917;BMP280;68315;48.608;11.436;2023-12-14T13:00:07;97060.34;;;9.13
78917;BMP280;68315;48.608;11.436;2023-12-14T13:02:36;97067.88;;;9.07
78917;BMP280;68315;48.608;11.436;2023-12-14T13:05:01;97071.59;;;9.09
78917;BMP280;68315;48.608;11.436;2023-12-14T13:07:26;97068.31;;;9.11
78917;BMP280;68315;48.608;11.436;2023-12-14T13:09:52;97073.38;;;9.07
78917;BMP280;68315;48.608;11.436;2023-12-14T13:12:17;97068.38;;;9.05
78917;BMP280;68315;48.608;11.436;2023-12-14T13:14:42;97071.22;;;9.00
78917;BMP280;68315;48.608;11.436;2023-12-14T13:17:07;97082.28;;;8.94
78917;BMP280;68315;48.608;11.436;2023-12-14T13:19:33;97089.97;;;8.96
78917;BMP280;68315;48.608;11.436;2023-12-14T13:21:58;97096.13;;;9.02
78917;BMP280;68315;48.608;11.436;2023-12-14T13:24:24;97090.41;;;9.00
78917;BMP280;68315;48.608;11.436;2023-12-14T13:26:50;97093.25;;;8.94
78917;BMP280;68315;48.608;11.436;2023-12-14T13:29:15;97097.06;;;8.86
78917;BMP280;68315;48.608;11.436;2023-12-14T13:31:40;97101.50;;;8.76
78917;BMP280;68315;48.608;11.436;2023-12-14T13:34:06;97098.69;;;8.63
78917;BMP280;68315;48.608;11.436;2023-12-14T13:36:31;97107.25;;;8.53
78917;BMP280;68315;48.608;11.436;2023-12-14T13:38:56;97106.63;;;8.42
78917;BMP280;68315;48.608;11.436;2023-12-14T13:41:22;97105.22;;;8.35
78917;BMP280;68315;48.608;11.436;2023-12-14T13:43:47;97114.97;;;8.31
78917;BMP280;68315;48.608;11.436;2023-12-14T13:46:12;97122.53;;;8.25
78917;BMP280;68315;48.608;11.436;2023-12-14T13:48:37;97117.53;;;8.23
78917;BMP280;68315;48.608;11.436;2023-12-14T13:51:04;97119.56;;;8.23
78917;BMP280;68315;48.608;11.436;2023-12-14T13:53:29;97126.81;;;8.20
78917;BMP280;68315;48.608;11.436;2023-12-14T13:55:54;97131.53;;;8.20
78917;BMP280;68315;48.608;11.436;2023-12-14T13:58:19;97138.72;;;8.23
78917;BMP280;68315;48.608;11.436;2023-12-14T14:00:45;97139.69;;;8.25